sensor_id;sensor_type;location;lat;lon;timestamp;temperature;humidity
48579;DHT22;34357;51.948;6.132;2023-04-29T00:00:07;10.00;90.40
48579;DHT22;34357;51.948;6.132;2023-04-29T00:02:39;10.10;90.50
48579;DHT22;34357;51.948;6.132;2023-04-29T00:05:05;10.10;90.30
48579;DHT22;34357;51.948;6.132;2023-04-29T00:07:31;10.10;90.30
48579;DHT22;34357;51.948;6.132;2023-04-29T00:09:58;10.00;90.50
48579;DHT22;34357;51.948;6.132;2023-04-29T00:12:24;10.00;90.60
48579;DHT22;34357;51.948;6.132;2023-04-29T00:14:50;10.00;90.80
48579;DHT22;34357;51.948;6.132;2023-04-29T00:17:16;9.90;90.80
48579;DHT22;34357;51.948;6.132;2023-04-29T00:19:42;9.90;90.80
48579;DHT22;34357;51.948;6.132;2023-04-29T00:22:08;9.90;90.70
48579;DHT22;34357;51.948;6.132;2023-04-29T00:24:33;9.90;90.90
48579;DHT22;34357;51.948;6.132;2023-04-29T00:26:59;9.90;90.80
48579;DHT22;34357;51.948;6.132;2023-04-29T00:29:27;9.90;91.00
48579;DHT22;34357;51.948;6.132;2023-04-29T00:31:53;9.90;91.00
48579;DHT22;34357;51.948;6.132;2023-04-29T00:34:19;9.90;91.10
48579;DHT22;34357;51.948;6.132;2023-04-29T00:36:44;9.90;91.10
48579;DHT22;34357;51.948;6.132;2023-04-29T00:39:10;9.90;91.20
48579;DHT22;34357;51.948;6.132;2023-04-29T00:41:38;9.80;91.30
48579;DHT22;34357;51.948;6.132;2023-04-29T00:44:04;9.80;91.50
48579;DHT22;34357;51.948;6.132;2023-04-29T00:46:30;9.90;91.50
48579;DHT22;34357;51.948;6.132;2023-04-29T00:48:55;9.80;91.50
48579;DHT22;34357;51.948;6.132;2023-04-29T00:51:21;9.80;91.70
48579;DHT22;34357;51.948;6.132;2023-04-29T00:53:47;9.80;91.80
48579;DHT22;34357;51.948;6.132;2023-04-29T00:56:13;9.80;91.90
48579;DHT22;34357;51.948;6.132;2023-04-29T00:58:41;9.80;91.90
48579;DHT22;34357;51.948;6.132;2023-04-29T01:01:14;9.80;92.00
48579;DHT22;34357;51.948;6.132;2023-04-29T01:03:41;9.80;92.10
48579;DHT22;34357;51.948;6.132;2023-04-29T01:11:38;9.70;92.10
48579;DHT22;34357;51.948;6.132;2023-04-29T01:14:07;9.70;92.20
48579;DHT22;34357;51.948;6.132;2023-04-29T01:16:41;9.70;92.30
48579;DHT22;34357;51.948;6.132;2023-04-29T01:21:48;9.70;92.40
48579;DHT22;34357;51.948;6.132;2023-04-29T01:24:15;9.70;92.50
48579;DHT22;34357;51.948;6.132;2023-04-29T01:26:48;9.70;92.60
48579;DHT22;34357;51.948;6.132;2023-04-29T01:29:52;9.70;92.60
48579;DHT22;34357;51.948;6.132;2023-04-29T01:32:40;9.70;92.60
48579;DHT22;34357;51.948;6.132;2023-04-29T01:41:30;9.80;92.50
48579;DHT22;34357;51.948;6.132;2023-04-29T01:44:14;9.70;92.40
48579;DHT22;34357;51.948;6.132;2023-04-29T01:46:43;9.70;92.60
48579;DHT22;34357;51.948;6.132;2023-04-29T01:49:13;9.70;92.50
48579;DHT22;34357;51.948;6.132;2023-04-29T01:51:39;9.70;92.50
48579;DHT22;34357;51.948;6.132;2023-04-29T01:54:05;9.70;92.50
48579;DHT22;34357;51.948;6.132;2023-04-29T01:56:31;9.70;92.50
48579;DHT22;34357;51.948;6.132;2023-04-29T01:59:01;9.70;92.40
48579;DHT22;34357;51.948;6.132;2023-04-29T02:01:50;9.70;92.50
48579;DHT22;34357;51.948;6.132;2023-04-29T02:04:16;9.70;92.30
48579;DHT22;34357;51.948;6.132;2023-04-29T02:06:42;9.70;92.30
48579;DHT22;34357;51.948;6.132;2023-04-29T02:09:09;9.70;92.40
48579;DHT22;34357;51.948;6.132;2023-04-29T02:11:35;9.70;92.30
48579;DHT22;34357;51.948;6.132;2023-04-29T02:14:00;9.70;92.30
48579;DHT22;34357;51.948;6.132;2023-04-29T02:16:26;9.70;92.20
48579;DHT22;34357;51.948;6.132;2023-04-29T02:18:56;9.70;92.30
48579;DHT22;34357;51.948;6.132;2023-04-29T02:21:22;9.60;92.20
48579;DHT22;34357;51.948;6.132;2023-04-29T02:23:48;9.70;92.20
48579;DHT22;34357;51.948;6.132;2023-04-29T02:26:14;9.70;92.10
48579;DHT22;34357;51.948;6.132;2023-04-29T02:28:40;9.70;91.90
48579;DHT22;34357;51.948;6.132;2023-04-29T02:31:06;9.70;92.00
48579;DHT22;34357;51.948;6.132;2023-04-29T02:33:32;9.70;91.90
48579;DHT22;34357;51.948;6.132;2023-04-29T02:35:58;9.70;91.70
48579;DHT22;34357;51.948;6.132;2023-04-29T02:38:24;9.60;91.80
48579;DHT22;34357;51.948;6.132;2023-04-29T02:40:50;9.60;91.70
48579;DHT22;34357;51.948;6.132;2023-04-29T02:43:16;9.60;91.50
48579;DHT22;34357;51.948;6.132;2023-04-29T02:45:43;9.60;91.40
48579;DHT22;34357;51.948;6.132;2023-04-29T02:48:10;9.60;91.30
48579;DHT22;34357;51.948;6.132;2023-04-29T02:50:35;9.60;91.10
48579;DHT22;34357;51.948;6.132;2023-04-29T02:53:02;9.60;91.00
48579;DHT22;34357;51.948;6.132;2023-04-29T02:55:28;9.60;90.70
48579;DHT22;34357;51.948;6.132;2023-04-29T02:57:58;9.60;90.60
48579;DHT22;34357;51.948;6.132;2023-04-29T03:00:24;9.60;90.60
48579;DHT22;34357;51.948;6.132;2023-04-29T03:02:49;9.60;90.50
48579;DHT22;34357;51.948;6.132;2023-04-29T03:05:15;9.60;90.50
48579;DHT22;34357;51.948;6.132;2023-04-29T03:07:41;9.60;90.50
48579;DHT22;34357;51.948;6.132;2023-04-29T03:10:08;9.60;90.50
48579;DHT22;34357;51.948;6.132;2023-04-29T03:12:35;9.60;90.30
48579;DHT22;34357;51.948;6.132;2023-04-29T03:15:02;9.60;90.30
48579;DHT22;34357;51.948;6.132;2023-04-29T03:17:28;9.60;90.20
48579;DHT22;34357;51.948;6.132;2023-04-29T03:19:53;9.60;90.20
48579;DHT22;34357;51.948;6.132;2023-04-29T03:22:19;9.60;90.20
48579;DHT22;34357;51.948;6.132;2023-04-29T03:24:45;9.50;90.20
48579;DHT22;34357;51.948;6.132;2023-04-29T03:27:11;9.60;90.20
48579;DHT22;34357;51.948;6.132;2023-04-29T03:29:36;9.60;90.20
48579;DHT22;34357;51.948;6.132;2023-04-29T03:32:02;9.60;90.20
48579;DHT22;34357;51.948;6.132;2023-04-29T03:34:29;9.60;90.20
48579;DHT22;34357;51.948;6.132;2023-04-29T03:37:13;9.60;90.10
48579;DHT22;34357;51.948;6.132;2023-04-29T03:39:44;9.60;90.30
48579;DHT22;34357;51.948;6.132;2023-04-29T03:42:12;9.60;90.30
48579;DHT22;34357;51.948;6.132;2023-04-29T03:44:38;9.60;90.10
48579;DHT22;34357;51.948;6.132;2023-04-29T03:47:04;9.60;90.10
48579;DHT22;34357;51.948;6.132;2023-04-29T03:49:31;9.50;90.10
48579;DHT22;34357;51.948;6.132;2023-04-29T03:51:57;9.50;90.20
48579;DHT22;34357;51.948;6.132;2023-04-29T03:54:23;9.50;90.20
48579;DHT22;34357;51.948;6.132;2023-04-29T03:56:48;9.50;90.20
48579;DHT22;34357;51.948;6.132;2023-04-29T03:59:14;9.60;90.10
48579;DHT22;34357;51.948;6.132;2023-04-29T04:01:40;9.50;90.10
48579;DHT22;34357;51.948;6.132;2023-04-29T04:04:06;9.50;90.30
48579;DHT22;34357;51.948;6.132;2023-04-29T04:06:34;9.50;90.30
48579;DHT22;34357;51.948;6.132;2023-04-29T04:08:59;9.50;90.50
48579;DHT22;34357;51.948;6.132;2023-04-29T04:11:28;9.50;90.50
48579;DHT22;34357;51.948;6.132;2023-04-29T04:13:56;9.50;90.60
48579;DHT22;34357;51.948;6.132;2023-04-29T04:16:23;9.50;90.60
48579;DHT22;34357;51.948;6.132;2023-04-29T04:18:48;9.50;90.70
48579;DHT22;34357;51.948;6.132;2023-04-29T04:21:14;9.50;90.70
48579;DHT22;34357;51.948;6.132;2023-04-29T04:23:45;9.40;90.70
48579;DHT22;34357;51.948;6.132;2023-04-29T04:26:14;9.40;90.70
48579;DHT22;34357;51.948;6.132;2023-04-29T04:29:00;9.40;90.70
48579;DHT22;34357;51.948;6.132;2023-04-29T04:31:44;9.40;90.70
48579;DHT22;34357;51.948;6.132;2023-04-29T04:34:11;9.40;90.70
48579;DHT22;34357;51.948;6.132;2023-04-29T04:36:37;9.40;90.70
48579;DHT22;34357;51.948;6.132;2023-04-29T04:39:02;9.40;90.70
48579;DHT22;34357;51.948;6.132;2023-04-29T04:41:30;9.40;90.70
48579;DHT22;34357;51.948;6.132;2023-04-29T04:43:56;9.40;90.80
48579;DHT22;34357;51.948;6.132;2023-04-29T04:46:38;9.40;90.80
48579;DHT22;34357;51.948;6.132;2023-04-29T04:49:26;9.40;90.70
48579;DHT22;34357;51.948;6.132;2023-04-29T04:51:52;9.40;90.70
48579;DHT22;34357;51.948;6.132;2023-04-29T04:54:18;9.40;90.70
48579;DHT22;34357;51.948;6.132;2023-04-29T04:56:46;9.40;90.60
48579;DHT22;34357;51.948;6.132;2023-04-29T04:59:13;9.50;90.70
48579;DHT22;34357;51.948;6.132;2023-04-29T05:01:39;9.50;90.60
48579;DHT22;34357;51.948;6.132;2023-04-29T05:04:05;9.50;90.40
48579;DHT22;34357;51.948;6.132;2023-04-29T05:06:31;9.40;90.40
48579;DHT22;34357;51.948;6.132;2023-04-29T05:08:57;9.40;90.40
48579;DHT22;34357;51.948;6.132;2023-04-29T05:11:23;9.40;90.30
48579;DHT22;34357;51.948;6.132;2023-04-29T05:14:03;9.50;90.50
48579;DHT22;34357;51.948;6.132;2023-04-29T05:16:30;9.60;90.10
48579;DHT22;34357;51.948;6.132;2023-04-29T05:18:56;9.50;90.10
48579;DHT22;34357;51.948;6.132;2023-04-29T05:21:25;9.50;90.10
48579;DHT22;34357;51.948;6.132;2023-04-29T05:23:51;9.50;90.20
48579;DHT22;34357;51.948;6.132;2023-04-29T05:26:17;9.50;90.20
48579;DHT22;34357;51.948;6.132;2023-04-29T05:28:43;9.50;90.10
48579;DHT22;34357;51.948;6.132;2023-04-29T05:31:09;9.50;90.20
48579;DHT22;34357;51.948;6.132;2023-04-29T05:33:34;9.50;90.20
48579;DHT22;34357;51.948;6.132;2023-04-29T05:36:00;9.60;90.00
48579;DHT22;34357;51.948;6.132;2023-04-29T05:38:26;9.60;90.00
48579;DHT22;34357;51.948;6.132;2023-04-29T05:41:04;9.60;89.90
48579;DHT22;34357;51.948;6.132;2023-04-29T05:43:48;9.60;89.90
48579;DHT22;34357;51.948;6.132;2023-04-29T05:46:15;9.70;89.70
48579;DHT22;34357;51.948;6.132;2023-04-29T05:48:41;9.70;89.40
48579;DHT22;34357;51.948;6.132;2023-04-29T05:51:09;9.70;89.60
48579;DHT22;34357;51.948;6.132;2023-04-29T05:53:35;9.80;89.40
48579;DHT22;34357;51.948;6.132;2023-04-29T05:56:03;9.80;89.30
48579;DHT22;34357;51.948;6.132;2023-04-29T05:58:35;9.90;89.30
48579;DHT22;34357;51.948;6.132;2023-04-29T06:01:01;9.90;88.70
48579;DHT22;34357;51.948;6.132;2023-04-29T06:03:28;9.90;88.60
48579;DHT22;34357;51.948;6.132;2023-04-29T06:06:11;10.00;88.70
48579;DHT22;34357;51.948;6.132;2023-04-29T06:09:00;10.10;88.50
48579;DHT22;34357;51.948;6.132;2023-04-29T06:11:28;10.20;88.40
48579;DHT22;34357;51.948;6.132;2023-04-29T06:13:53;10.20;88.00
48579;DHT22;34357;51.948;6.132;2023-04-29T06:16:19;10.30;87.70
48579;DHT22;34357;51.948;6.132;2023-04-29T06:18:45;10.20;87.70
48579;DHT22;34357;51.948;6.132;2023-04-29T06:21:12;10.30;87.50
48579;DHT22;34357;51.948;6.132;2023-04-29T06:23:38;10.20;87.40
48579;DHT22;34357;51.948;6.132;2023-04-29T06:26:10;10.30;87.60
48579;DHT22;34357;51.948;6.132;2023-04-29T06:28:36;10.30;87.50
48579;DHT22;34357;51.948;6.132;2023-04-29T06:31:02;10.30;87.60
48579;DHT22;34357;51.948;6.132;2023-04-29T06:33:28;10.30;87.30
48579;DHT22;34357;51.948;6.132;2023-04-29T06:35:54;10.30;87.50
48579;DHT22;34357;51.948;6.132;2023-04-29T06:38:39;10.30;87.40
48579;DHT22;34357;51.948;6.132;2023-04-29T06:41:23;10.30;87.20
48579;DHT22;34357;51.948;6.132;2023-04-29T06:44:00;10.30;86.90
48579;DHT22;34357;51.948;6.132;2023-04-29T06:46:26;10.30;86.90
48579;DHT22;34357;51.948;6.132;2023-04-29T06:49:06;10.40;86.70
48579;DHT22;34357;51.948;6.132;2023-04-29T06:51:33;10.40;86.20
48579;DHT22;34357;51.948;6.132;2023-04-29T06:54:00;10.50;86.40
48579;DHT22;34357;51.948;6.132;2023-04-29T06:56:34;10.50;86.30
48579;DHT22;34357;51.948;6.132;2023-04-29T06:59:00;10.60;86.40
48579;DHT22;34357;51.948;6.132;2023-04-29T07:01:26;10.70;86.50
48579;DHT22;34357;51.948;6.132;2023-04-29T07:03:52;10.70;86.50
48579;DHT22;34357;51.948;6.132;2023-04-29T07:06:18;10.80;86.40
48579;DHT22;34357;51.948;6.132;2023-04-29T07:08:44;10.90;86.10
48579;DHT22;34357;51.948;6.132;2023-04-29T07:11:10;10.90;85.50
48579;DHT22;34357;51.948;6.132;2023-04-29T07:13:35;10.90;85.70
48579;DHT22;34357;51.948;6.132;2023-04-29T07:16:01;11.00;85.70
48579;DHT22;34357;51.948;6.132;2023-04-29T07:18:27;11.10;85.30
48579;DHT22;34357;51.948;6.132;2023-04-29T07:20:53;11.20;84.90
48579;DHT22;34357;51.948;6.132;2023-04-29T07:23:20;11.10;83.90
48579;DHT22;34357;51.948;6.132;2023-04-29T07:25:46;11.00;83.50
48579;DHT22;34357;51.948;6.132;2023-04-29T07:28:13;11.00;83.60
48579;DHT22;34357;51.948;6.132;2023-04-29T07:30:38;11.10;83.80
48579;DHT22;34357;51.948;6.132;2023-04-29T07:33:04;11.10;84.00
48579;DHT22;34357;51.948;6.132;2023-04-29T07:35:30;11.20;83.70
48579;DHT22;34357;51.948;6.132;2023-04-29T07:37:56;11.20;83.30
48579;DHT22;34357;51.948;6.132;2023-04-29T07:40:24;11.30;83.20
48579;DHT22;34357;51.948;6.132;2023-04-29T07:42:51;11.30;83.20
48579;DHT22;34357;51.948;6.132;2023-04-29T07:45:17;11.40;83.10
48579;DHT22;34357;51.948;6.132;2023-04-29T07:47:43;11.50;82.80
48579;DHT22;34357;51.948;6.132;2023-04-29T07:50:10;11.60;82.20
48579;DHT22;34357;51.948;6.132;2023-04-29T07:52:37;11.70;82.10
48579;DHT22;34357;51.948;6.132;2023-04-29T07:55:03;11.90;82.10
48579;DHT22;34357;51.948;6.132;2023-04-29T07:57:29;11.90;81.60
48579;DHT22;34357;51.948;6.132;2023-04-29T07:59:55;12.00;80.90
48579;DHT22;34357;51.948;6.132;2023-04-29T08:02:21;12.00;80.90
48579;DHT22;34357;51.948;6.132;2023-04-29T08:04:48;12.10;80.40
48579;DHT22;34357;51.948;6.132;2023-04-29T08:07:16;12.20;80.70
48579;DHT22;34357;51.948;6.132;2023-04-29T08:09:42;12.40;80.60
48579;DHT22;34357;51.948;6.132;2023-04-29T08:12:09;12.40;80.50
48579;DHT22;34357;51.948;6.132;2023-04-29T08:14:35;12.50;79.60
48579;DHT22;34357;51.948;6.132;2023-04-29T08:17:01;12.70;79.60
48579;DHT22;34357;51.948;6.132;2023-04-29T08:19:26;12.90;78.70
48579;DHT22;34357;51.948;6.132;2023-04-29T08:21:55;13.10;78.70
48579;DHT22;34357;51.948;6.132;2023-04-29T08:24:21;13.10;77.10
48579;DHT22;34357;51.948;6.132;2023-04-29T08:26:47;12.90;77.10
48579;DHT22;34357;51.948;6.132;2023-04-29T08:29:13;12.90;77.70
48579;DHT22;34357;51.948;6.132;2023-04-29T08:31:39;12.90;77.40
48579;DHT22;34357;51.948;6.132;2023-04-29T08:34:05;12.90;77.50
48579;DHT22;34357;51.948;6.132;2023-04-29T08:36:31;12.90;76.50
48579;DHT22;34357;51.948;6.132;2023-04-29T08:38:57;12.90;76.30
48579;DHT22;34357;51.948;6.132;2023-04-29T08:41:22;13.10;76.60
48579;DHT22;34357;51.948;6.132;2023-04-29T08:43:49;13.30;76.20
48579;DHT22;34357;51.948;6.132;2023-04-29T08:46:16;13.20;75.80
48579;DHT22;34357;51.948;6.132;2023-04-29T08:48:43;13.40;75.50
48579;DHT22;34357;51.948;6.132;2023-04-29T08:51:11;13.70;74.30
48579;DHT22;34357;51.948;6.132;2023-04-29T08:53:38;13.70;74.30
48579;DHT22;34357;51.948;6.132;2023-04-29T08:56:11;13.60;73.40
48579;DHT22;34357;51.948;6.132;2023-04-29T08:58:39;13.80;74.30
48579;DHT22;34357;51.948;6.132;2023-04-29T09:01:08;13.60;73.70
48579;DHT22;34357;51.948;6.132;2023-04-29T09:06:23;14.00;73.20
48579;DHT22;34357;51.948;6.132;2023-04-29T09:08:49;14.30;73.40
48579;DHT22;34357;51.948;6.132;2023-04-29T09:11:15;14.50;72.20
48579;DHT22;34357;51.948;6.132;2023-04-29T09:13:41;14.70;70.50
48579;DHT22;34357;51.948;6.132;2023-04-29T09:16:11;14.60;70.20
48579;DHT22;34357;51.948;6.132;2023-04-29T09:18:48;14.50;70.90
48579;DHT22;34357;51.948;6.132;2023-04-29T09:21:16;14.70;71.40
48579;DHT22;34357;51.948;6.132;2023-04-29T09:23:43;14.90;70.90
48579;DHT22;34357;51.948;6.132;2023-04-29T09:26:09;15.10;70.10
48579;DHT22;34357;51.948;6.132;2023-04-29T09:28:35;15.20;68.40
48579;DHT22;34357;51.948;6.132;2023-04-29T09:31:04;15.80;68.00
48579;DHT22;34357;51.948;6.132;2023-04-29T09:33:31;15.80;68.10
48579;DHT22;34357;51.948;6.132;2023-04-29T09:36:15;15.90;66.70
48579;DHT22;34357;51.948;6.132;2023-04-29T09:38:59;16.00;65.90
48579;DHT22;34357;51.948;6.132;2023-04-29T09:41:25;16.30;66.10
48579;DHT22;34357;51.948;6.132;2023-04-29T09:44:08;16.10;65.80
48579;DHT22;34357;51.948;6.132;2023-04-29T09:46:35;15.50;66.60
48579;DHT22;34357;51.948;6.132;2023-04-29T09:49:21;15.60;66.10
48579;DHT22;34357;51.948;6.132;2023-04-29T09:51:55;15.50;66.20
48579;DHT22;34357;51.948;6.132;2023-04-29T09:54:25;15.70;66.60
48579;DHT22;34357;51.948;6.132;2023-04-29T09:56:54;15.50;65.70
48579;DHT22;34357;51.948;6.132;2023-04-29T09:59:20;15.80;66.20
48579;DHT22;34357;51.948;6.132;2023-04-29T10:01:56;15.90;65.30
48579;DHT22;34357;51.948;6.132;2023-04-29T10:04:25;16.10;65.50
48579;DHT22;34357;51.948;6.132;2023-04-29T10:06:55;16.50;64.30
48579;DHT22;34357;51.948;6.132;2023-04-29T10:09:22;16.90;64.20
48579;DHT22;34357;51.948;6.132;2023-04-29T10:11:52;16.80;62.10
48579;DHT22;34357;51.948;6.132;2023-04-29T10:14:22;16.80;61.70
48579;DHT22;34357;51.948;6.132;2023-04-29T10:16:58;17.00;62.30
48579;DHT22;34357;51.948;6.132;2023-04-29T10:19:37;17.30;60.10
48579;DHT22;34357;51.948;6.132;2023-04-29T10:22:11;17.40;60.80
48579;DHT22;34357;51.948;6.132;2023-04-29T10:24:41;16.10;63.20
48579;DHT22;34357;51.948;6.132;2023-04-29T10:27:09;16.00;64.60
48579;DHT22;34357;51.948;6.132;2023-04-29T10:29:37;16.40;64.10
48579;DHT22;34357;51.948;6.132;2023-04-29T10:32:06;16.70;63.30
48579;DHT22;34357;51.948;6.132;2023-04-29T10:34:36;16.40;61.90
48579;DHT22;34357;51.948;6.132;2023-04-29T10:37:04;16.40;63.00
48579;DHT22;34357;51.948;6.132;2023-04-29T10:42:45;17.40;59.90
48579;DHT22;34357;51.948;6.132;2023-04-29T10:45:24;17.40;59.90
48579;DHT22;34357;51.948;6.132;2023-04-29T10:53:14;17.40;59.10
48579;DHT22;34357;51.948;6.132;2023-04-29T10:55:41;17.50;57.90
48579;DHT22;34357;51.948;6.132;2023-04-29T11:01:01;17.40;57.50
48579;DHT22;34357;51.948;6.132;2023-04-29T11:03:49;17.40;58.60
48579;DHT22;34357;51.948;6.132;2023-04-29T11:09:18;17.10;58.40
48579;DHT22;34357;51.948;6.132;2023-04-29T11:11:52;17.00;57.90
48579;DHT22;34357;51.948;6.132;2023-04-29T11:14:35;17.00;58.50
48579;DHT22;34357;51.948;6.132;2023-04-29T11:17:03;17.20;58.80
48579;DHT22;34357;51.948;6.132;2023-04-29T11:19:34;17.60;57.60
48579;DHT22;34357;51.948;6.132;2023-04-29T11:24:35;17.80;55.90
48579;DHT22;34357;51.948;6.132;2023-04-29T11:27:03;17.60;57.30
48579;DHT22;34357;51.948;6.132;2023-04-29T11:29:31;17.30;57.90
48579;DHT22;34357;51.948;6.132;2023-04-29T11:32:07;17.20;58.20
48579;DHT22;34357;51.948;6.132;2023-04-29T11:34:32;17.20;58.80
48579;DHT22;34357;51.948;6.132;2023-04-29T11:36:58;17.40;58.30
48579;DHT22;34357;51.948;6.132;2023-04-29T11:39:26;18.00;56.60
48579;DHT22;34357;51.948;6.132;2023-04-29T11:42:05;17.90;55.10
48579;DHT22;34357;51.948;6.132;2023-04-29T11:44:35;18.40;55.10
48579;DHT22;34357;51.948;6.132;2023-04-29T11:47:05;18.90;55.00
48579;DHT22;34357;51.948;6.132;2023-04-29T11:49:32;18.90;53.90
48579;DHT22;34357;51.948;6.132;2023-04-29T11:51:58;18.90;53.60
48579;DHT22;34357;51.948;6.132;2023-04-29T11:54:29;18.70;53.50
48579;DHT22;34357;51.948;6.132;2023-04-29T11:56:55;18.30;52.40
48579;DHT22;34357;51.948;6.132;2023-04-29T11:59:21;17.90;54.30
48579;DHT22;34357;51.948;6.132;2023-04-29T12:01:48;17.50;54.30
48579;DHT22;34357;51.948;6.132;2023-04-29T12:04:14;17.40;53.80
48579;DHT22;34357;51.948;6.132;2023-04-29T12:06:40;17.50;54.70
48579;DHT22;34357;51.948;6.132;2023-04-29T12:09:06;17.70;54.30
48579;DHT22;34357;51.948;6.132;2023-04-29T12:11:33;17.50;56.10
48579;DHT22;34357;51.948;6.132;2023-04-29T12:14:00;17.80;56.00
48579;DHT22;34357;51.948;6.132;2023-04-29T12:16:33;17.90;55.00
48579;DHT22;34357;51.948;6.132;2023-04-29T12:19:00;17.90;55.20
48579;DHT22;34357;51.948;6.132;2023-04-29T12:21:26;17.80;54.50
48579;DHT22;34357;51.948;6.132;2023-04-29T12:23:52;17.40;55.10
48579;DHT22;34357;51.948;6.132;2023-04-29T12:26:18;17.50;55.30
48579;DHT22;34357;51.948;6.132;2023-04-29T12:28:47;17.70;56.60
48579;DHT22;34357;51.948;6.132;2023-04-29T12:31:14;17.90;55.90
48579;DHT22;34357;51.948;6.132;2023-04-29T12:33:42;18.00;52.80
48579;DHT22;34357;51.948;6.132;2023-04-29T12:36:16;18.00;54.00
48579;DHT22;34357;51.948;6.132;2023-04-29T12:38:46;18.10;54.30
48579;DHT22;34357;51.948;6.132;2023-04-29T12:41:13;17.80;52.60
48579;DHT22;34357;51.948;6.132;2023-04-29T12:43:41;17.90;54.00
48579;DHT22;34357;51.948;6.132;2023-04-29T12:46:09;18.10;53.30
48579;DHT22;34357;51.948;6.132;2023-04-29T12:48:36;18.20;53.10
48579;DHT22;34357;51.948;6.132;2023-04-29T12:51:11;18.10;54.00
48579;DHT22;34357;51.948;6.132;2023-04-29T12:53:37;18.10;53.10
48579;DHT22;34357;51.948;6.132;2023-04-29T12:56:06;17.90;53.40
48579;DHT22;34357;51.948;6.132;2023-04-29T12:58:32;17.70;54.10
48579;DHT22;34357;51.948;6.132;2023-04-29T13:01:01;18.00;54.50
48579;DHT22;34357;51.948;6.132;2023-04-29T13:03:27;18.10;53.30
48579;DHT22;34357;51.948;6.132;2023-04-29T13:05:53;18.60;56.40
48579;DHT22;34357;51.948;6.132;2023-04-29T13:08:19;18.70;52.90
48579;DHT22;34357;51.948;6.132;2023-04-29T13:10:45;18.60;51.80
48579;DHT22;34357;51.948;6.132;2023-04-29T13:13:11;18.60;51.90
48579;DHT22;34357;51.948;6.132;2023-04-29T13:15:37;18.10;51.90
48579;DHT22;34357;51.948;6.132;2023-04-29T13:18:07;17.70;53.70
48579;DHT22;34357;51.948;6.132;2023-04-29T13:20:32;17.70;54.10
48579;DHT22;34357;51.948;6.132;2023-04-29T13:22:59;17.80;53.10
48579;DHT22;34357;51.948;6.132;2023-04-29T13:25:25;18.00;52.40
48579;DHT22;34357;51.948;6.132;2023-04-29T13:27:51;18.20;51.90
48579;DHT22;34357;51.948;6.132;2023-04-29T13:30:17;18.30;52.30
48579;DHT22;34357;51.948;6.132;2023-04-29T13:32:42;18.20;51.20
48579;DHT22;34357;51.948;6.132;2023-04-29T13:35:09;18.30;52.70
48579;DHT22;34357;51.948;6.132;2023-04-29T13:37:35;18.10;52.80
48579;DHT22;34357;51.948;6.132;2023-04-29T13:40:00;18.00;51.00
48579;DHT22;34357;51.948;6.132;2023-04-29T13:42:26;17.80;52.10
48579;DHT22;34357;51.948;6.132;2023-04-29T13:44:52;17.90;53.00
48579;DHT22;34357;51.948;6.132;2023-04-29T13:47:22;18.20;53.70
48579;DHT22;34357;51.948;6.132;2023-04-29T13:49:48;18.50;51.40
48579;DHT22;34357;51.948;6.132;2023-04-29T13:52:14;18.90;51.40
48579;DHT22;34357;51.948;6.132;2023-04-29T13:54:39;18.90;50.90
48579;DHT22;34357;51.948;6.132;2023-04-29T13:57:05;19.00;49.90
48579;DHT22;34357;51.948;6.132;2023-04-29T13:59:31;19.20;49.10
48579;DHT22;34357;51.948;6.132;2023-04-29T14:01:58;19.30;48.70
48579;DHT22;34357;51.948;6.132;2023-04-29T14:04:25;19.40;49.10
48579;DHT22;34357;51.948;6.132;2023-04-29T14:06:51;19.50;49.40
48579;DHT22;34357;51.948;6.132;2023-04-29T14:09:17;19.40;48.90
48579;DHT22;34357;51.948;6.132;2023-04-29T14:11:44;19.20;48.30
48579;DHT22;34357;51.948;6.132;2023-04-29T14:14:10;18.80;49.20
48579;DHT22;34357;51.948;6.132;2023-04-29T14:16:36;18.50;50.70
48579;DHT22;34357;51.948;6.132;2023-04-29T14:19:02;18.20;52.10
48579;DHT22;34357;51.948;6.132;2023-04-29T14:21:29;18.20;51.40
48579;DHT22;34357;51.948;6.132;2023-04-29T14:23:56;18.10;51.70
48579;DHT22;34357;51.948;6.132;2023-04-29T14:26:22;17.90;52.20
48579;DHT22;34357;51.948;6.132;2023-04-29T14:28:48;17.70;52.90
48579;DHT22;34357;51.948;6.132;2023-04-29T14:31:23;17.80;52.80
48579;DHT22;34357;51.948;6.132;2023-04-29T14:33:49;17.90;52.70
48579;DHT22;34357;51.948;6.132;2023-04-29T14:36:15;17.90;52.70
48579;DHT22;34357;51.948;6.132;2023-04-29T14:38:42;17.70;52.80
48579;DHT22;34357;51.948;6.132;2023-04-29T14:41:07;17.60;53.50
48579;DHT22;34357;51.948;6.132;2023-04-29T14:43:34;17.50;54.00
48579;DHT22;34357;51.948;6.132;2023-04-29T14:46:00;17.40;54.60
48579;DHT22;34357;51.948;6.132;2023-04-29T14:48:26;17.20;54.50
48579;DHT22;34357;51.948;6.132;2023-04-29T14:50:53;17.00;54.40
48579;DHT22;34357;51.948;6.132;2023-04-29T14:53:19;16.90;55.10
48579;DHT22;34357;51.948;6.132;2023-04-29T14:55:46;16.80;55.70
48579;DHT22;34357;51.948;6.132;2023-04-29T14:58:12;17.00;54.70
48579;DHT22;34357;51.948;6.132;2023-04-29T15:00:37;17.10;55.20
48579;DHT22;34357;51.948;6.132;2023-04-29T15:03:03;17.10;54.70
48579;DHT22;34357;51.948;6.132;2023-04-29T15:05:29;17.10;54.00
48579;DHT22;34357;51.948;6.132;2023-04-29T15:07:55;17.10;54.40
48579;DHT22;34357;51.948;6.132;2023-04-29T15:10:23;17.10;52.50
48579;DHT22;34357;51.948;6.132;2023-04-29T15:12:48;17.10;54.10
48579;DHT22;34357;51.948;6.132;2023-04-29T15:15:17;17.00;54.00
48579;DHT22;34357;51.948;6.132;2023-04-29T15:17:42;17.00;54.30
48579;DHT22;34357;51.948;6.132;2023-04-29T15:20:09;16.90;54.10
48579;DHT22;34357;51.948;6.132;2023-04-29T15:22:35;16.90;53.00
48579;DHT22;34357;51.948;6.132;2023-04-29T15:25:01;16.90;52.90
48579;DHT22;34357;51.948;6.132;2023-04-29T15:27:27;16.90;53.50
48579;DHT22;34357;51.948;6.132;2023-04-29T15:29:53;16.90;53.90
48579;DHT22;34357;51.948;6.132;2023-04-29T15:32:22;16.90;53.40
48579;DHT22;34357;51.948;6.132;2023-04-29T15:34:49;16.90;53.90
48579;DHT22;34357;51.948;6.132;2023-04-29T15:37:15;17.00;54.90
48579;DHT22;34357;51.948;6.132;2023-04-29T15:39:40;17.10;56.30
48579;DHT22;34357;51.948;6.132;2023-04-29T15:42:06;17.00;55.10
48579;DHT22;34357;51.948;6.132;2023-04-29T15:44:33;17.00;54.80
48579;DHT22;34357;51.948;6.132;2023-04-29T15:46:59;17.00;55.60
48579;DHT22;34357;51.948;6.132;2023-04-29T15:49:25;16.90;55.40
48579;DHT22;34357;51.948;6.132;2023-04-29T15:51:51;16.90;55.30
48579;DHT22;34357;51.948;6.132;2023-04-29T15:54:16;16.90;54.40
48579;DHT22;34357;51.948;6.132;2023-04-29T15:56:42;16.90;54.70
48579;DHT22;34357;51.948;6.132;2023-04-29T15:59:08;17.00;55.50
48579;DHT22;34357;51.948;6.132;2023-04-29T16:01:34;17.10;55.10
48579;DHT22;34357;51.948;6.132;2023-04-29T16:03:59;17.20;54.70
48579;DHT22;34357;51.948;6.132;2023-04-29T16:06:25;17.30;53.90
48579;DHT22;34357;51.948;6.132;2023-04-29T16:08:52;17.10;53.50
48579;DHT22;34357;51.948;6.132;2023-04-29T16:11:18;17.10;54.20
48579;DHT22;34357;51.948;6.132;2023-04-29T16:13:43;17.20;55.00